createdAt,value
2023-03-11T00:02:43.352Z,61.36
2023-03-11T00:13:11.269Z,61.40
2023-03-11T00:23:36.860Z,61.21
2023-03-11T00:34:02.603Z,61.05
2023-03-11T00:44:28.088Z,60.79
2023-03-11T00:54:54.156Z,59.69
2023-03-11T01:05:22.483Z,58.80
2023-03-11T01:15:46.588Z,58.38
2023-03-11T01:26:13.017Z,57.99
2023-03-11T01:36:38.841Z,58.27
2023-03-11T01:47:36.390Z,59.28
2023-03-11T01:58:04.259Z,60.02
2023-03-11T02:08:34.178Z,60.17
2023-03-11T02:19:02.688Z,59.59
2023-03-11T02:29:30.514Z,59.37
2023-03-11T02:39:57.086Z,59.41
2023-03-11T02:50:25.468Z,59.08
2023-03-11T03:00:50.790Z,59.22
2023-03-11T03:11:17.062Z,59.49
2023-03-11T03:21:42.652Z,59.98
2023-03-11T03:32:09.087Z,60.50
2023-03-11T03:42:35.292Z,60.22
2023-03-11T03:53:01.742Z,60.58
2023-03-11T04:03:27.728Z,61.03
2023-03-11T04:13:53.507Z,62.03
2023-03-11T04:24:19.047Z,62.76
2023-03-11T04:34:44.771Z,63.63
2023-03-11T04:45:12.345Z,63.88
2023-03-11T04:55:38.141Z,64.02
2023-03-11T05:06:04.028Z,63.70
2023-03-11T05:16:29.881Z,63.83
2023-03-11T05:26:55.764Z,63.85
2023-03-11T05:37:22.028Z,63.60
2023-03-11T07:40:21.560Z,63.90
2023-03-11T07:50:47.343Z,64.62
2023-03-11T08:01:16.215Z,65.36
2023-03-11T08:11:42.590Z,65.91
2023-03-11T08:22:08.484Z,66.19
2023-03-11T08:32:34.248Z,66.43
2023-03-11T08:43:00.359Z,66.44
2023-03-11T08:53:26.140Z,66.48
2023-03-11T09:03:51.890Z,66.69
2023-03-11T09:14:17.984Z,67.14
2023-03-11T09:24:43.731Z,67.37
2023-03-11T09:35:10.887Z,67.50
2023-03-11T09:45:42.069Z,67.73
2023-03-11T09:56:10.462Z,67.96
2023-03-11T10:06:36.811Z,68.07
2023-03-11T10:17:14.468Z,68.75
2023-03-11T10:27:46.985Z,68.88
2023-03-11T10:38:19.692Z,68.69
2023-03-11T10:48:45.683Z,68.63
2023-03-11T10:59:27.035Z,69.14
2023-03-11T11:10:16.582Z,69.29
2023-03-11T11:20:55.152Z,69.22
2023-03-11T11:31:26.784Z,68.97
2023-03-11T11:41:54.135Z,69.18
2023-03-11T11:52:25.539Z,69.42
2023-03-11T12:03:07.799Z,68.89
2023-03-11T12:13:50.993Z,69.01
2023-03-11T12:24:33.982Z,68.92
2023-03-11T12:35:05.971Z,68.79
2023-03-11T12:45:53.361Z,69.09
2023-03-11T12:56:34.844Z,68.44
2023-03-11T13:07:25.832Z,68.79
2023-03-11T13:18:01.879Z,68.08
2023-03-11T13:29:04.112Z,68.31
2023-03-11T13:39:41.436Z,67.87
2023-03-11T13:50:11.498Z,68.10
2023-03-11T14:00:37.792Z,67.67
2023-03-11T14:11:04.917Z,67.45
2023-03-11T14:21:31.849Z,67.16
2023-03-11T14:31:57.946Z,67.21
2023-03-11T14:42:27.373Z,67.32
2023-03-11T14:52:59.132Z,67.27
2023-03-11T15:03:29.289Z,66.65
2023-03-11T15:13:56.853Z,66.36
2023-03-11T15:24:27.224Z,66.11
2023-03-11T15:35:04.744Z,66.73
2023-03-11T15:45:31.701Z,66.56
2023-03-11T15:56:07.431Z,66.71
2023-03-11T16:06:33.655Z,67.07
2023-03-11T16:16:59.054Z,67.54
2023-03-11T16:27:24.595Z,67.15
2023-03-11T16:37:50.767Z,67.35
2023-03-11T16:48:16.752Z,66.70
2023-03-11T16:58:42.464Z,65.86
2023-03-11T17:09:08.040Z,65.41
2023-03-11T17:19:34.561Z,64.56
2023-03-11T17:30:00.783Z,64.62
2023-03-11T17:40:27.167Z,64.24
2023-03-11T17:50:52.687Z,64.09
2023-03-11T18:01:20.408Z,63.72
2023-03-11T18:11:46.296Z,63.29
2023-03-11T18:22:12.394Z,63.58
2023-03-11T18:32:38.492Z,63.15
2023-03-11T18:43:04.237Z,62.94
2023-03-11T18:53:30.244Z,63.43
2023-03-11T19:03:58.227Z,63.23
2023-03-11T19:14:24.393Z,63.07
2023-03-11T19:24:50.059Z,63.22
2023-03-11T19:35:16.925Z,63.07
2023-03-11T19:45:42.739Z,62.56
2023-03-11T19:56:09.413Z,62.69
2023-03-11T20:06:34.824Z,62.16
2023-03-11T20:17:00.616Z,61.94
2023-03-11T20:27:26.249Z,62.00
2023-03-11T20:37:52.123Z,61.80
2023-03-11T20:48:17.720Z,61.83
2023-03-11T20:58:45.706Z,61.78
2023-03-11T21:09:13.014Z,61.76
2023-03-11T21:19:38.943Z,61.91
2023-03-11T21:30:05.151Z,61.98
2023-03-11T21:40:31.222Z,61.70
2023-03-11T21:50:57.121Z,61.95
2023-03-11T22:01:23.111Z,62.29
2023-03-11T22:11:49.480Z,62.45
2023-03-11T22:22:15.784Z,62.99
2023-03-11T22:32:41.632Z,63.18
2023-03-11T22:43:07.940Z,62.98
2023-03-11T22:53:33.673Z,62.97
2023-03-11T23:03:59.318Z,62.87
2023-03-11T23:14:37.802Z,63.25
2023-03-11T23:25:12.226Z,63.41
2023-03-11T23:35:42.878Z,63.90
2023-03-11T23:46:10.347Z,63.36
2023-03-11T23:56:36.196Z,63.45
